createdAt,value
2022-08-18T00:02:30.141Z,99603.67
2022-08-18T00:07:47.045Z,99609.81
2022-08-18T00:10:18.963Z,99613.96
2022-08-18T00:12:51.705Z,99608.73
2022-08-18T00:15:25.990Z,99613.96
2022-08-18T00:17:58.662Z,99606.27
2022-08-18T00:20:31.057Z,99604.36
2022-08-18T00:23:04.514Z,99606.42
2022-08-18T00:25:38.016Z,99612.40
2022-08-18T00:28:10.407Z,99613.70
2022-08-18T00:30:43.550Z,99620.44
2022-08-18T00:33:16.054Z,99620.06
2022-08-18T00:35:49.988Z,99614.46
2022-08-18T00:38:24.531Z,99619.43
2022-08-18T00:40:58.763Z,99619.28
2022-08-18T00:43:49.305Z,99612.11
2022-08-18T00:46:26.142Z,99609.98
2022-08-18T00:48:58.859Z,99611.14
2022-08-18T00:51:48.702Z,99610.66
2022-08-18T00:54:27.167Z,99607.97
2022-08-18T00:57:06.479Z,99607.14
2022-08-18T01:00:00.424Z,99600.76
2022-08-18T01:02:37.457Z,99604.05
2022-08-18T01:05:25.729Z,99600.61
2022-08-18T01:07:58.668Z,99599.89
2022-08-18T01:10:31.663Z,99602.88
2022-08-18T01:13:06.058Z,99605.42
2022-08-18T01:15:39.605Z,99606.80
2022-08-18T01:18:32.502Z,99610.84
2022-08-18T01:21:33.585Z,99612.44
2022-08-18T01:24:08.505Z,99624.35
2022-08-18T01:26:44.192Z,99617.74
2022-08-18T01:29:19.240Z,99618.19
2022-08-18T01:31:58.141Z,99607.84
2022-08-18T01:34:30.914Z,99615.05
2022-08-18T01:37:08.336Z,99614.41
2022-08-18T01:41:23.095Z,99614.74
2022-08-18T01:42:20.408Z,99610.82
2022-08-18T01:44:53.701Z,99615.41
2022-08-18T01:47:26.538Z,99619.36
2022-08-18T01:50:00.824Z,99616.66
2022-08-18T01:52:34.268Z,99621.55
2022-08-18T01:55:08.184Z,99625.47
2022-08-18T02:00:26.654Z,99629.80
2022-08-18T02:03:02.067Z,99630.55
2022-08-18T02:05:39.831Z,99628.02
2022-08-18T02:08:13.307Z,99632.52
2022-08-18T02:10:45.856Z,99628.81
2022-08-18T02:13:18.883Z,99625.86
2022-08-18T02:15:52.012Z,99628.95
2022-08-18T02:18:47.387Z,99632.45
2022-08-18T02:21:12.859Z,99628.31
2022-08-18T02:23:52.943Z,99633.39
2022-08-18T02:26:20.203Z,99622.79
2022-08-18T02:28:53.119Z,99624.30
2022-08-18T02:31:26.233Z,99624.23
2022-08-18T02:33:59.732Z,99619.58
2022-08-18T02:36:32.458Z,99628.22
2022-08-18T02:39:05.096Z,99627.58
2022-08-18T02:41:38.141Z,99630.03
2022-08-18T02:44:10.952Z,99628.50
2022-08-18T02:46:44.575Z,99630.66
2022-08-18T02:49:17.075Z,99639.98
2022-08-18T02:51:50.400Z,99637.56
2022-08-18T02:54:24.075Z,99644.03
2022-08-18T02:56:57.641Z,99645.41
2022-08-18T02:59:32.068Z,99650.94
2022-08-18T03:02:06.695Z,99647.02
2022-08-18T03:04:39.145Z,99649.27
2022-08-18T03:07:11.706Z,99642.27
2022-08-18T03:09:44.760Z,99638.00
2022-08-18T03:12:18.206Z,99648.44
2022-08-18T03:14:51.076Z,99645.55
2022-08-18T03:17:25.538Z,99646.84
2022-08-18T03:19:58.353Z,99644.95
2022-08-18T03:22:32.139Z,99655.77
2022-08-18T03:25:05.089Z,99654.05
2022-08-18T03:27:40.244Z,99657.58
2022-08-18T03:30:13.508Z,99658.97
2022-08-18T03:32:48.780Z,99659.58
2022-08-18T03:35:20.446Z,99658.97
2022-08-18T03:37:53.102Z,99657.89
2022-08-18T03:40:26.713Z,99662.23
2022-08-18T03:43:02.202Z,99671.94
2022-08-18T03:45:36.274Z,99665.46
2022-08-18T03:48:08.837Z,99665.58
2022-08-18T03:50:41.420Z,99672.91
2022-08-18T03:53:13.897Z,99662.46
2022-08-18T03:55:46.869Z,99666.89
2022-08-18T03:58:19.260Z,99661.65
2022-08-18T04:00:51.682Z,99667.39
2022-08-18T04:03:24.302Z,99660.70
2022-08-18T04:05:58.125Z,99661.59
2022-08-18T04:08:30.732Z,99661.03
2022-08-18T04:11:03.104Z,99664.63
2022-08-18T04:13:39.724Z,99670.63
2022-08-18T04:16:12.984Z,99664.44
2022-08-18T04:18:45.469Z,99661.38
2022-08-18T04:21:18.680Z,99662.09
2022-08-18T04:23:52.212Z,99659.72
2022-08-18T04:26:26.440Z,99661.73
2022-08-18T04:29:01.771Z,99658.31
2022-08-18T04:31:35.257Z,99663.17
2022-08-18T04:34:08.330Z,99664.94
2022-08-18T04:36:41.346Z,99666.15
2022-08-18T04:39:15.557Z,99673.03
2022-08-18T04:41:48.894Z,99681.59
2022-08-18T04:44:21.869Z,99680.17
2022-08-18T04:49:39.997Z,99681.97
2022-08-18T04:52:39.847Z,99682.83
2022-08-18T04:55:06.054Z,99685.94
2022-08-18T04:57:38.689Z,99689.44
2022-08-18T05:00:15.059Z,99687.75
2022-08-18T05:02:48.045Z,99683.23
2022-08-18T05:05:20.612Z,99689.23
2022-08-18T05:07:54.042Z,99689.81
2022-08-18T05:10:27.219Z,99685.05
2022-08-18T05:13:02.544Z,99688.77
2022-08-18T05:15:59.489Z,99687.23
2022-08-18T05:18:09.692Z,99683.22
2022-08-18T05:20:43.884Z,99689.69
2022-08-18T05:23:17.973Z,99692.78
2022-08-18T05:25:51.087Z,99686.20
2022-08-18T05:28:25.383Z,99688.95
2022-08-18T05:31:00.530Z,99688.95
2022-08-18T05:33:32.592Z,99689.70
2022-08-18T05:36:19.111Z,99692.28
2022-08-18T05:39:20.480Z,99692.61
2022-08-18T05:42:09.489Z,99685.61
2022-08-18T05:44:46.021Z,99685.61
2022-08-18T05:47:32.655Z,99679.65
2022-08-18T05:50:12.912Z,99688.94
2022-08-18T05:52:58.631Z,99684.56
2022-08-18T05:55:56.687Z,99679.20
2022-08-18T05:58:36.783Z,99686.91
2022-08-18T06:01:20.243Z,99690.03
2022-08-18T06:04:03.041Z,99694.84
2022-08-18T06:06:36.458Z,99690.84
2022-08-18T06:09:22.570Z,99689.25
2022-08-18T06:11:58.000Z,99699.84
2022-08-18T06:14:30.463Z,99687.56
2022-08-18T06:17:16.735Z,99695.53
2022-08-18T06:20:15.030Z,99697.93
2022-08-18T06:23:11.355Z,99704.50
2022-08-18T06:26:17.953Z,99710.59
2022-08-18T06:29:23.326Z,99701.72
2022-08-18T06:32:02.203Z,99709.89
2022-08-18T06:34:54.764Z,99703.95
2022-08-18T06:38:24.159Z,99698.23
2022-08-18T06:41:41.008Z,99698.14
2022-08-18T06:44:10.051Z,99700.23
2022-08-18T06:46:53.762Z,99699.37
2022-08-18T06:50:03.580Z,99696.59
2022-08-18T06:52:40.208Z,99695.70
2022-08-18T06:55:18.520Z,99698.14
2022-08-18T06:58:09.426Z,99699.25
2022-08-18T07:00:56.261Z,99692.84
2022-08-18T07:03:45.618Z,99700.31
2022-08-18T07:06:29.690Z,99701.06
2022-08-18T07:09:28.576Z,99696.20
2022-08-18T07:12:20.528Z,99689.67
2022-08-18T07:14:59.682Z,99696.84
2022-08-18T07:17:43.465Z,99697.84
2022-08-18T07:20:24.861Z,99698.72
2022-08-18T07:23:01.869Z,99698.20
2022-08-18T07:25:43.450Z,99699.61
2022-08-18T07:28:39.544Z,99703.27
2022-08-18T07:31:28.978Z,99705.52
2022-08-18T07:34:26.967Z,99705.25
2022-08-18T07:37:10.145Z,99710.53
2022-08-18T07:40:06.443Z,99701.38
2022-08-18T07:43:01.163Z,99710.31
2022-08-18T07:45:44.607Z,99709.50
2022-08-18T07:48:38.229Z,99711.17
2022-08-18T07:51:37.133Z,99711.77
2022-08-18T07:54:48.984Z,99717.17
2022-08-18T07:57:41.998Z,99713.06
2022-08-18T08:03:33.814Z,99709.58
2022-08-18T08:06:35.375Z,99709.90
2022-08-18T08:09:18.577Z,99711.03
2022-08-18T08:11:58.049Z,99709.05
2022-08-18T08:14:52.214Z,99704.60
2022-08-18T08:17:36.782Z,99701.23
2022-08-18T08:20:22.489Z,99704.31
2022-08-18T08:23:23.412Z,99706.00
2022-08-18T08:26:33.962Z,99696.77
2022-08-18T08:29:12.299Z,99694.54
2022-08-18T08:32:06.069Z,99690.91
2022-08-18T08:35:04.954Z,99697.06
2022-08-18T08:37:48.266Z,99699.55
2022-08-18T08:40:46.834Z,99703.17
2022-08-18T08:43:25.768Z,99702.04
2022-08-18T08:46:24.171Z,99703.48
2022-08-18T08:49:16.086Z,99707.12
2022-08-18T08:51:55.156Z,99708.79
2022-08-18T08:54:42.240Z,99704.84
2022-08-18T08:57:16.140Z,99710.65
2022-08-18T08:59:50.310Z,99714.50
2022-08-18T09:02:48.260Z,99717.25
2022-08-18T09:05:56.855Z,99718.84
2022-08-18T09:08:56.516Z,99712.51
2022-08-18T09:12:14.065Z,99708.77
2022-08-18T09:15:19.779Z,99705.38
2022-08-18T09:18:27.262Z,99706.49
2022-08-18T09:21:35.421Z,99699.11
2022-08-18T09:24:24.269Z,99706.34
2022-08-18T09:28:09.776Z,99696.04
2022-08-18T09:31:07.289Z,99690.59
2022-08-18T09:33:45.949Z,99698.23
2022-08-18T09:36:32.566Z,99700.42
2022-08-18T09:42:50.121Z,99705.80
2022-08-18T09:45:37.766Z,99702.98
2022-08-18T09:48:28.396Z,99705.38
2022-08-18T09:51:21.004Z,99696.04
2022-08-18T09:54:01.024Z,99697.06
2022-08-18T09:56:57.572Z,99700.90
2022-08-18T09:59:40.663Z,99695.09
2022-08-18T10:02:30.298Z,99704.03
2022-08-18T10:05:42.010Z,99696.38
2022-08-18T10:11:31.138Z,99703.48
2022-08-18T10:14:33.430Z,99700.66
2022-08-18T10:17:33.340Z,99696.33
2022-08-18T10:20:23.919Z,99688.36
2022-08-18T10:23:07.574Z,99694.16
2022-08-18T10:25:45.885Z,99689.25
2022-08-18T10:28:55.744Z,99693.91
2022-08-18T10:31:31.185Z,99693.22
2022-08-18T10:34:19.169Z,99692.62
2022-08-18T10:36:59.072Z,99695.23
2022-08-18T10:39:44.272Z,99695.14
2022-08-18T10:42:37.439Z,99697.09
2022-08-18T10:48:34.933Z,99689.97
2022-08-18T10:51:57.884Z,99695.42
2022-08-18T10:54:24.824Z,99703.44
2022-08-18T10:57:19.378Z,99703.25
2022-08-18T11:00:04.756Z,99701.39
2022-08-18T11:02:46.702Z,99689.95
2022-08-18T11:05:26.911Z,99696.00
2022-08-18T11:13:40.574Z,99692.58
2022-08-18T11:16:32.793Z,99689.05
2022-08-18T11:19:11.412Z,99694.45
2022-08-18T11:21:51.465Z,99693.05
2022-08-18T11:24:28.815Z,99686.70
2022-08-18T11:27:15.236Z,99684.32
2022-08-18T11:29:41.380Z,99685.28
2022-08-18T11:32:39.432Z,99674.31
2022-08-18T11:35:19.859Z,99680.34
2022-08-18T11:38:06.635Z,99682.52
2022-08-18T11:43:41.420Z,99682.77
2022-08-18T11:46:30.901Z,99682.72
2022-08-18T11:49:06.415Z,99686.89
2022-08-18T11:51:56.227Z,99685.17
2022-08-18T11:54:50.497Z,99675.32
2022-08-18T11:57:59.774Z,99674.27
2022-08-18T12:00:49.894Z,99667.27
2022-08-18T12:03:44.027Z,99673.20
2022-08-18T12:06:21.503Z,99675.08
2022-08-18T12:09:09.179Z,99668.56
2022-08-18T12:11:55.512Z,99670.92
2022-08-18T12:14:35.320Z,99670.27
2022-08-18T12:17:09.439Z,99666.15
2022-08-18T12:19:44.025Z,99673.05
2022-08-18T12:22:22.810Z,99675.77
2022-08-18T12:24:57.367Z,99681.87
2022-08-18T12:27:33.017Z,99675.14
2022-08-18T12:30:06.957Z,99677.53
2022-08-18T12:32:49.247Z,99671.00
2022-08-18T12:35:16.740Z,99661.41
2022-08-18T12:38:13.916Z,99666.19
2022-08-18T12:40:25.601Z,99660.22
2022-08-18T12:42:59.093Z,99664.52
2022-08-18T12:45:32.631Z,99654.72
2022-08-18T12:50:54.684Z,99659.16
2022-08-18T12:53:15.666Z,99655.58
2022-08-18T12:55:50.002Z,99652.64
2022-08-18T12:58:22.869Z,99653.32
2022-08-18T13:00:56.438Z,99655.93
2022-08-18T13:03:29.372Z,99647.77
2022-08-18T13:06:04.387Z,99650.37
2022-08-18T13:08:49.944Z,99649.55
2022-08-18T13:11:23.670Z,99658.27
2022-08-18T13:13:56.553Z,99651.54
2022-08-18T13:16:39.032Z,99645.13
2022-08-18T13:19:02.430Z,99637.65
2022-08-18T13:21:40.901Z,99646.12
2022-08-18T13:24:13.793Z,99645.28
2022-08-18T13:26:48.795Z,99647.24
2022-08-18T13:29:22.525Z,99659.03
2022-08-18T13:31:58.519Z,99644.45
2022-08-18T13:34:31.434Z,99639.70
2022-08-18T13:37:04.297Z,99636.13
2022-08-18T13:39:37.813Z,99653.03
2022-08-18T13:42:21.583Z,99649.20
2022-08-18T13:44:49.877Z,99647.30
2022-08-18T13:47:23.451Z,99647.90
2022-08-18T13:50:00.002Z,99658.59
2022-08-18T13:52:34.386Z,99662.52
2022-08-18T13:55:13.705Z,99659.47
2022-08-18T13:57:49.996Z,99656.96
2022-08-18T14:00:29.637Z,99655.56
2022-08-18T14:03:00.381Z,99653.34
2022-08-18T14:05:51.296Z,99659.23
2022-08-18T14:08:19.257Z,99656.69
2022-08-18T14:10:49.180Z,99657.27
2022-08-18T14:13:24.984Z,99656.44
2022-08-18T14:15:59.018Z,99655.58
2022-08-18T14:18:32.503Z,99665.41
2022-08-18T14:21:24.465Z,99679.39
2022-08-18T14:24:16.939Z,99677.98
2022-08-18T14:26:51.294Z,99684.71
2022-08-18T14:29:46.891Z,99688.86
2022-08-18T14:31:59.956Z,99681.27
2022-08-18T14:34:34.185Z,99692.19
2022-08-18T14:37:09.811Z,99688.24
2022-08-18T14:39:42.889Z,99692.44
2022-08-18T14:42:20.402Z,99698.31
2022-08-18T14:44:54.914Z,99694.11
2022-08-18T14:47:31.408Z,99694.09
2022-08-18T14:50:04.168Z,99704.97
2022-08-18T14:52:37.431Z,99696.85
2022-08-18T14:55:12.653Z,99695.66
2022-08-18T14:57:45.351Z,99699.00
2022-08-18T15:00:20.865Z,99700.94
2022-08-18T15:02:53.630Z,99702.84
2022-08-18T15:05:28.392Z,99703.37
2022-08-18T15:08:04.062Z,99704.98
2022-08-18T15:10:39.175Z,99707.73
2022-08-18T15:13:13.134Z,99706.59
2022-08-18T15:15:51.187Z,99716.30
2022-08-18T15:18:22.371Z,99714.30
2022-08-18T15:21:19.595Z,99716.22
2022-08-18T15:24:19.958Z,99720.08
2022-08-18T15:26:39.902Z,99716.95
2022-08-18T15:29:15.040Z,99719.72
2022-08-18T15:31:49.729Z,99715.73
2022-08-18T15:34:22.857Z,99709.55
2022-08-18T15:36:57.950Z,99715.38
2022-08-18T15:39:33.303Z,99716.72
2022-08-18T15:42:10.889Z,99714.69
2022-08-18T15:44:44.721Z,99718.53
2022-08-18T15:47:20.935Z,99716.30
2022-08-18T15:49:52.633Z,99715.44
2022-08-18T15:52:26.689Z,99713.45
2022-08-18T15:55:04.141Z,99709.49
2022-08-18T15:57:40.294Z,99714.16
2022-08-18T16:00:14.961Z,99713.55
2022-08-18T16:02:56.159Z,99713.79
2022-08-18T16:05:35.400Z,99707.34
2022-08-18T16:08:10.413Z,99703.13
2022-08-18T16:10:43.908Z,99710.63
2022-08-18T16:13:17.038Z,99710.59
2022-08-18T16:15:50.545Z,99718.37
2022-08-18T16:18:23.127Z,99710.53
2022-08-18T16:20:56.652Z,99712.13
2022-08-18T16:23:29.327Z,99712.11
2022-08-18T16:26:04.891Z,99713.17
2022-08-18T16:28:37.650Z,99716.48
2022-08-18T16:31:10.447Z,99714.47
2022-08-18T16:33:43.978Z,99719.44
2022-08-18T16:36:17.177Z,99715.77
2022-08-18T16:38:49.685Z,99714.33
2022-08-18T16:41:23.197Z,99717.35
2022-08-18T16:43:57.465Z,99720.06
2022-08-18T16:46:30.623Z,99726.13
2022-08-18T16:49:04.881Z,99727.70
2022-08-18T16:51:38.985Z,99730.44
2022-08-18T16:54:11.429Z,99735.61
2022-08-18T16:56:43.770Z,99736.09
2022-08-18T16:59:33.918Z,99740.44
2022-08-18T17:02:24.810Z,99743.17
2022-08-18T17:04:59.408Z,99744.19
2022-08-18T17:07:34.389Z,99743.53
2022-08-18T17:10:07.795Z,99749.26
2022-08-18T17:12:41.408Z,99754.20
2022-08-18T17:15:15.381Z,99759.73
2022-08-18T17:17:47.878Z,99755.14
2022-08-18T17:20:21.810Z,99758.69
2022-08-18T17:22:55.592Z,99762.19
2022-08-18T17:25:28.042Z,99760.73
2022-08-18T17:28:02.723Z,99762.02
2022-08-18T17:30:40.523Z,99764.41
2022-08-18T17:33:17.630Z,99771.30
2022-08-18T17:35:51.350Z,99765.63
2022-08-18T17:38:49.642Z,99756.59
2022-08-18T17:41:23.893Z,99768.19
2022-08-18T17:44:00.943Z,99769.47
2022-08-18T17:46:37.717Z,99771.07
2022-08-18T17:49:17.526Z,99782.41
2022-08-18T17:51:55.388Z,99780.66
2022-08-18T17:54:36.547Z,99773.91
2022-08-18T17:57:24.187Z,99777.16
2022-08-18T18:00:14.024Z,99784.84
2022-08-18T18:02:48.202Z,99790.94
2022-08-18T18:05:22.296Z,99796.09
2022-08-18T18:07:58.797Z,99786.23
2022-08-18T18:13:24.282Z,99792.45
2022-08-18T18:16:01.471Z,99786.48
2022-08-18T18:18:43.659Z,99791.09
2022-08-18T18:21:23.327Z,99794.59
2022-08-18T18:24:11.848Z,99782.77
2022-08-18T18:26:49.929Z,99790.70
2022-08-18T18:29:35.613Z,99789.18
2022-08-18T18:32:11.306Z,99786.85
2022-08-18T18:34:49.794Z,99785.70
2022-08-18T18:37:33.679Z,99780.09
2022-08-18T18:40:09.479Z,99781.39
2022-08-18T18:42:42.575Z,99779.02
2022-08-18T18:45:29.889Z,99778.06
2022-08-18T18:48:48.204Z,99786.30
2022-08-18T18:51:10.288Z,99780.31
2022-08-18T18:53:59.323Z,99781.89
2022-08-18T18:56:39.844Z,99778.97
2022-08-18T18:59:46.159Z,99784.48
2022-08-18T19:02:33.552Z,99779.64
2022-08-18T19:05:22.055Z,99784.23
2022-08-18T19:08:06.268Z,99784.71
2022-08-18T19:10:49.859Z,99784.57
2022-08-18T19:13:33.395Z,99789.41
2022-08-18T19:16:23.915Z,99791.61
2022-08-18T19:19:35.736Z,99790.08
2022-08-18T19:22:03.940Z,99784.59
2022-08-18T19:24:24.871Z,99784.59
2022-08-18T19:27:01.128Z,99790.05
2022-08-18T19:29:38.048Z,99784.92
2022-08-18T19:32:18.352Z,99789.31
2022-08-18T19:34:55.627Z,99788.97
2022-08-18T19:37:32.482Z,99789.20
2022-08-18T19:40:22.192Z,99789.73
2022-08-18T19:46:22.090Z,99789.11
2022-08-18T19:49:09.201Z,99787.43
2022-08-18T19:51:42.999Z,99783.98
2022-08-18T19:54:35.712Z,99790.85
2022-08-18T19:57:34.890Z,99786.54
2022-08-18T20:00:51.886Z,99786.95
2022-08-18T20:03:48.413Z,99793.53
2022-08-18T20:06:40.588Z,99792.91
2022-08-18T20:09:47.416Z,99792.91
2022-08-18T20:12:59.930Z,99786.75
2022-08-18T20:15:32.672Z,99786.75
2022-08-18T20:18:10.315Z,99786.83
2022-08-18T20:20:42.857Z,99788.79
2022-08-18T20:23:38.580Z,99788.79
2022-08-18T20:26:16.113Z,99791.47
2022-08-18T20:28:48.631Z,99797.23
2022-08-18T20:31:21.021Z,99794.73
2022-08-18T20:34:14.160Z,99791.96
2022-08-18T20:36:47.965Z,99794.41
2022-08-18T20:39:46.900Z,99786.02
2022-08-18T20:42:36.630Z,99788.17
2022-08-18T20:45:16.375Z,99791.73
2022-08-18T20:48:19.249Z,99790.48
2022-08-18T20:51:11.201Z,99789.36
2022-08-18T20:54:01.579Z,99782.34
2022-08-18T20:56:48.130Z,99782.34
2022-08-18T20:59:25.478Z,99777.42
2022-08-18T21:02:11.654Z,99779.27
2022-08-18T21:04:52.312Z,99784.22
2022-08-18T21:07:36.331Z,99782.27
2022-08-18T21:10:22.149Z,99786.98
2022-08-18T21:12:58.297Z,99792.20
2022-08-18T21:15:37.326Z,99785.73
2022-08-18T21:18:21.704Z,99789.81
2022-08-18T21:20:58.657Z,99788.66
2022-08-18T21:23:37.830Z,99793.34
2022-08-18T21:26:15.175Z,99786.74
2022-08-18T21:28:58.567Z,99786.74
2022-08-18T21:31:44.305Z,99795.70
2022-08-18T21:34:34.655Z,99797.94
2022-08-18T21:37:10.398Z,99801.32
2022-08-18T21:39:55.625Z,99806.45
2022-08-18T21:42:32.752Z,99809.56
2022-08-18T21:45:06.653Z,99812.83
2022-08-18T21:47:43.091Z,99812.83
2022-08-18T21:50:19.777Z,99814.55
2022-08-18T21:53:01.787Z,99812.30
2022-08-18T21:55:41.406Z,99816.28
2022-08-18T21:58:33.905Z,99811.05
2022-08-18T22:01:26.242Z,99812.41
2022-08-18T22:04:04.216Z,99812.14
2022-08-18T22:06:41.225Z,99812.14
2022-08-18T22:09:36.462Z,99819.20
2022-08-18T22:12:47.239Z,99820.09
2022-08-18T22:15:34.395Z,99819.16
2022-08-18T22:18:11.050Z,99828.54
2022-08-18T22:20:58.986Z,99816.70
2022-08-18T22:24:05.592Z,99816.88
2022-08-18T22:26:38.659Z,99816.88
2022-08-18T22:29:46.511Z,99817.78
2022-08-18T22:32:20.657Z,99814.02
2022-08-18T22:34:53.717Z,99814.02
2022-08-18T22:37:30.491Z,99813.94
2022-08-18T22:40:11.266Z,99800.56
2022-08-18T22:42:44.213Z,99803.47
2022-08-18T22:45:16.853Z,99803.38
2022-08-18T22:47:49.559Z,99808.58
2022-08-18T22:50:23.378Z,99812.95
2022-08-18T22:52:56.060Z,99815.19
2022-08-18T22:55:29.743Z,99821.47
2022-08-18T22:58:02.487Z,99813.73
2022-08-18T23:00:36.341Z,99811.05
2022-08-18T23:03:09.540Z,99812.51
2022-08-18T23:05:42.652Z,99807.20
2022-08-18T23:08:15.479Z,99807.03
2022-08-18T23:10:48.172Z,99811.63
2022-08-18T23:13:21.338Z,99804.30
2022-08-18T23:16:12.975Z,99814.97
2022-08-18T23:18:33.114Z,99810.95
2022-08-18T23:21:07.239Z,99812.01
2022-08-18T23:23:40.967Z,99814.98
2022-08-18T23:26:13.570Z,99820.08
2022-08-18T23:28:48.740Z,99818.48
2022-08-18T23:31:23.195Z,99819.42
2022-08-18T23:33:55.703Z,99814.19
2022-08-18T23:36:30.746Z,99811.77
2022-08-18T23:39:03.428Z,99808.64
2022-08-18T23:41:37.052Z,99810.11
2022-08-18T23:44:09.600Z,99812.48
2022-08-18T23:46:45.384Z,99818.23
2022-08-18T23:49:17.904Z,99816.73
2022-08-18T23:51:53.782Z,99822.70
2022-08-18T23:54:34.451Z,99820.63
2022-08-18T23:59:39.681Z,99835.64
